Time;durP1;ratioP1;P1;durP2;ratioP2;P2;SDS_P1;SDS_P2;PMS_P1;PMS_P2;Temp;Humidity;BMP_temperature;BMP_pressure;BME280_temperature;BME280_humidity;BME280_pressure;Samples;Min_cycle;Max_cycle;Signal;HPM_P1;HPM_P2
2022/08/05 00:00:07;;;;;;;14.68;8.88;;;;;;;17.58;100.00;100545.78;1774258;80;20997;-43
2022/08/05 00:02:34;;;;;;;10.18;8.35;;;;;;;17.60;100.00;100540.01;1774562;80;21010;-44
2022/08/05 00:05:01;;;;;;;9.08;8.18;;;;;;;17.63;100.00;100540.34;1738674;80;21178;-43
2022/08/05 00:07:28;;;;;;;11.28;8.03;;;;;;;17.67;100.00;100540.10;1774130;80;20915;-44
2022/08/05 00:09:55;;;;;;;10.30;8.10;;;;;;;17.72;100.00;100545.61;1774230;80;21567;-44
2022/08/05 00:12:21;;;;;;;9.88;8.15;;;;;;;17.76;100.00;100545.37;1774248;80;20974;-44
2022/08/05 00:14:49;;;;;;;10.15;8.28;;;;;;;17.78;100.00;100546.14;1774081;80;20887;-44
2022/08/05 00:17:16;;;;;;;9.18;8.25;;;;;;;17.81;100.00;100543.41;1773995;80;21381;-44
2022/08/05 00:19:42;;;;;;;8.78;8.08;;;;;;;17.83;100.00;100542.48;1774130;80;20895;-44
2022/08/05 00:22:09;;;;;;;10.03;8.35;;;;;;;17.85;100.00;100545.87;1752357;80;20938;-44
2022/08/05 00:24:36;;;;;;;9.28;8.40;;;;;;;17.88;100.00;100544.41;1774204;80;20981;-43
2022/08/05 00:27:04;;;;;;;8.85;7.92;;;;;;;17.88;100.00;100541.80;1774328;80;20983;-44
2022/08/05 00:29:31;;;;;;;10.13;8.10;;;;;;;17.89;100.00;100539.56;1774177;80;21360;-44
2022/08/05 00:31:58;;;;;;;12.47;8.60;;;;;;;17.87;100.00;100542.24;1774034;80;20938;-44
2022/08/05 00:34:24;;;;;;;9.95;9.15;;;;;;;17.86;100.00;100536.62;1774366;80;21018;-43
2022/08/05 00:36:52;;;;;;;9.73;8.85;;;;;;;17.87;100.00;100534.86;1774174;80;20969;-44
2022/08/05 00:39:19;;;;;;;11.63;8.98;;;;;;;17.84;100.00;100535.84;1774274;80;20933;-43
2022/08/05 00:41:47;;;;;;;10.55;9.55;;;;;;;17.85;100.00;100535.40;1774044;80;21393;-44
2022/08/05 00:44:13;;;;;;;25.05;10.68;;;;;;;17.81;100.00;100534.24;1752481;80;20965;-43
2022/08/05 00:46:41;;;;;;;29.15;9.85;;;;;;;17.78;100.00;100533.05;1774242;80;20926;-44
2022/08/05 00:49:08;;;;;;;22.73;9.40;;;;;;;17.74;100.00;100543.28;1774152;80;20982;-44
2022/08/05 00:51:35;;;;;;;26.42;9.28;;;;;;;17.71;100.00;100542.60;1752687;80;21595;-44
2022/08/05 00:54:03;;;;;;;24.07;9.95;;;;;;;17.68;100.00;100542.27;1774270;80;21139;-43
2022/08/05 00:56:31;;;;;;;30.50;8.88;;;;;;;17.68;100.00;100542.27;1774108;80;20945;-44
2022/08/05 00:58:58;;;;;;;40.25;9.13;;;;;;;17.67;100.00;100540.58;1774465;80;20938;-43
2022/08/05 01:01:24;;;;;;;23.20;7.87;;;;;;;17.67;100.00;100539.27;1774304;80;21112;-44
2022/08/05 01:03:51;;;;;;;56.53;8.15;;;;;;;17.66;100.00;100534.95;1773912;80;21020;-44
2022/08/05 01:06:18;;;;;;;17.17;6.42;;;;;;;17.67;100.00;100534.03;1774190;80;21246;-44
2022/08/05 01:08:45;;;;;;;43.02;7.92;;;;;;;17.68;100.00;100546.20;1774185;80;20938;-44
2022/08/05 01:11:29;;;;;;;31.40;7.55;;;;;;;17.67;100.00;100544.03;1774156;80;21013;-44
2022/08/05 01:14:07;;;;;;;37.53;8.18;;;;;;;17.65;100.00;100547.66;1776655;80;21484;-44
2022/08/05 01:16:50;;;;;;;25.77;6.72;;;;;;;17.65;100.00;100550.27;1779143;80;21495;-44
2022/08/05 01:19:48;;;;;;;26.23;6.40;;;;;;;17.66;100.00;100552.80;1779465;80;21228;-44
2022/08/05 01:22:48;;;;;;;13.28;5.83;;;;;;;17.65;100.00;100554.20;1778404;80;20977;-43
2022/08/05 01:25:43;;;;;;;24.85;6.72;;;;;;;17.65;100.00;100551.58;1779559;80;21009;-44
2022/08/05 01:28:52;;;;;;;19.45;6.70;;;;;;;17.62;100.00;100553.03;1780031;80;20938;-44
2022/08/05 01:31:53;;;;;;;10.05;5.53;;;;;;;17.60;100.00;100554.88;1779826;80;21499;-44
2022/08/05 01:34:34;;;;;;;5.40;4.95;;;;;;;17.58;100.00;100556.72;1779987;80;22148;-44
2022/08/05 01:37:07;;;;;;;25.88;6.12;;;;;;;17.51;100.00;100563.52;1777081;80;20934;-44
2022/08/05 01:39:35;;;;;;;27.70;6.78;;;;;;;17.42;100.00;100562.64;1749558;80;21020;-43
2022/08/05 01:42:04;;;;;;;21.20;6.90;;;;;;;17.38;100.00;100561.09;1779840;80;20981;-44
2022/08/05 01:44:32;;;;;;;42.33;6.67;;;;;;;17.38;100.00;100565.02;1750263;80;20934;-44
2022/08/05 01:46:59;;;;;;;17.17;6.75;;;;;;;17.37;100.00;100564.62;1749578;80;21376;-44
2022/08/05 01:49:26;;;;;;;20.97;6.62;;;;;;;17.37;100.00;100568.08;1780116;80;21012;-44
2022/08/05 01:52:00;;;;;;;13.58;6.50;;;;;;;17.35;100.00;100565.99;1780006;80;21460;-44
2022/08/05 01:54:44;;;;;;;8.30;6.70;;;;;;;17.33;100.00;100562.59;1779901;80;21018;-44
2022/08/05 01:57:12;;;;;;;15.28;6.85;;;;;;;17.34;100.00;100560.84;1779188;80;20934;-44
2022/08/05 01:59:40;;;;;;;8.00;7.35;;;;;;;17.33;100.00;100554.75;1779863;80;21155;-44
2022/08/05 02:02:07;;;;;;;11.57;7.17;;;;;;;17.37;100.00;100560.23;1779722;80;21033;-44
2022/08/05 02:04:36;;;;;;;7.15;6.35;;;;;;;17.39;100.00;100557.55;1779787;80;21014;-44
2022/08/05 02:07:03;;;;;;;7.75;6.78;;;;;;;17.43;100.00;100561.72;1779895;80;21559;-44
2022/08/05 02:09:30;;;;;;;15.83;7.10;;;;;;;17.43;100.00;100561.72;1749476;80;20981;-44
2022/08/05 02:12:31;;;;;;;17.00;7.40;;;;;;;17.42;100.00;100562.64;1779806;80;22114;-44
2022/08/05 02:15:17;;;;;;;14.43;7.55;;;;;;;17.42;100.00;100560.03;1786084;80;20965;-44
2022/08/05 02:17:56;;;;;;;20.12;7.00;;;;;;;17.43;100.00;100562.17;1788609;80;20969;-44
2022/08/05 02:20:25;;;;;;;14.10;7.60;;;;;;;17.43;100.00;100563.48;1786259;80;21024;-43
2022/08/05 02:23:06;;;;;;;32.95;7.78;;;;;;;17.43;100.00;100570.02;1788344;80;20997;-44
2022/08/05 02:25:35;;;;;;;26.68;7.60;;;;;;;17.43;100.00;100572.19;1788179;80;21214;-44
2022/08/05 02:28:05;;;;;;;22.00;6.22;;;;;;;17.44;100.00;100568.66;1788361;80;20961;-44
2022/08/05 02:30:39;;;;;;;25.25;7.28;;;;;;;17.45;100.00;100565.12;1788008;80;20957;-44
2022/08/05 02:33:06;;;;;;;11.20;6.95;;;;;;;17.45;100.00;100575.58;1787802;80;21526;-43
2022/08/05 02:35:33;;;;;;;37.08;7.28;;;;;;;17.46;100.00;100576.45;1788169;80;21020;-44
2022/08/05 02:38:00;;;;;;;19.50;7.30;;;;;;;17.43;100.00;100576.56;1788191;80;21251;-43
2022/08/05 02:40:27;;;;;;;5.95;5.35;;;;;;;17.38;100.00;100576.31;1788161;80;21712;-44
2022/08/05 02:42:54;;;;;;;16.67;6.25;;;;;;;17.35;100.00;100578.23;1787997;80;20989;-44
2022/08/05 02:45:22;;;;;;;20.35;6.08;;;;;;;17.27;100.00;100576.41;1787942;80;20985;-44
2022/08/05 02:47:50;;;;;;;15.90;5.70;;;;;;;17.24;100.00;100583.95;1788282;80;21597;-44
2022/08/05 02:50:17;;;;;;;33.02;6.22;;;;;;;17.19;100.00;100577.60;1759923;80;21146;-44
2022/08/05 02:52:44;;;;;;;34.00;6.58;;;;;;;17.18;100.00;100576.37;1788101;80;21000;-43
2022/08/05 02:55:11;;;;;;;23.83;6.62;;;;;;;17.18;100.00;100569.37;1788246;80;20934;-44
2022/08/05 02:57:38;;;;;;;23.25;6.50;;;;;;;17.19;100.00;100575.46;1788102;80;20937;-44
2022/08/05 03:00:08;;;;;;;17.95;6.47;;;;;;;17.23;100.00;100575.71;1787893;80;20938;-44
2022/08/05 03:02:38;;;;;;;21.50;7.47;;;;;;;17.24;100.00;100580.02;1788012;80;21230;-44
2022/08/05 03:05:07;;;;;;;24.05;7.12;;;;;;;17.27;100.00;100580.33;1759715;80;21010;-44
2022/08/05 03:07:34;;;;;;;24.20;6.87;;;;;;;17.25;100.00;100577.80;1759804;80;20973;-44
2022/08/05 03:10:02;;;;;;;22.00;7.70;;;;;;;17.26;100.00;100583.41;1788207;80;21015;-43
2022/08/05 03:12:34;;;;;;;21.07;7.70;;;;;;;17.29;100.00;100587.20;1787974;80;21068;-44
2022/08/05 03:15:02;;;;;;;21.73;8.18;;;;;;;17.28;100.00;100588.12;1778878;80;21437;-44
2022/08/05 03:17:29;;;;;;;12.37;7.60;;;;;;;17.29;100.00;100592.87;1774193;80;20969;-44
2022/08/05 03:19:56;;;;;;;24.27;8.68;;;;;;;17.30;100.00;100591.95;1774463;80;20970;-44
2022/08/05 03:22:22;;;;;;;30.50;8.75;;;;;;;17.30;100.00;100591.52;1774308;80;20938;-44
2022/08/05 03:24:49;;;;;;;19.48;8.38;;;;;;;17.32;100.00;100594.91;1774299;80;20950;-44
2022/08/05 03:27:17;;;;;;;12.95;8.65;;;;;;;17.36;100.00;100599.08;1777981;80;22149;-44
2022/08/05 03:29:44;;;;;;;11.70;8.68;;;;;;;17.42;100.00;100597.09;1774222;80;20954;-44
2022/08/05 03:32:11;;;;;;;11.80;8.13;;;;;;;17.47;100.00;100594.67;1774321;80;20969;-44
2022/08/05 03:34:39;;;;;;;18.60;8.58;;;;;;;17.54;100.00;100592.64;1774458;80;21441;-44
2022/08/05 03:37:06;;;;;;;13.00;8.35;;;;;;;17.57;100.00;100595.59;1752619;80;20918;-44
2022/08/05 03:39:34;;;;;;;8.50;7.65;;;;;;;17.60;100.00;100580.58;1774304;80;21275;-44
2022/08/05 03:42:02;;;;;;;9.90;8.83;;;;;;;17.62;100.00;100584.44;1774166;80;20950;-44
2022/08/05 03:44:29;;;;;;;18.10;9.48;;;;;;;17.65;100.00;100590.84;1752413;80;21014;-43
2022/08/05 03:46:56;;;;;;;17.52;9.15;;;;;;;17.69;100.00;100581.92;1774314;80;20879;-44
2022/08/05 03:49:23;;;;;;;20.20;9.25;;;;;;;17.73;100.00;100582.16;1774291;80;20993;-44
2022/08/05 03:52:03;;;;;;;27.32;9.65;;;;;;;17.77;100.00;100581.57;1774257;80;21070;-44
2022/08/05 03:54:38;;;;;;;16.40;9.45;;;;;;;17.84;100.00;100587.38;1774212;80;20954;-44
2022/08/05 03:57:05;;;;;;;15.97;10.07;;;;;;;17.91;100.00;100584.84;1774395;80;20938;-43
2022/08/05 03:59:37;;;;;;;14.13;9.85;;;;;;;17.99;100.00;100576.16;1774106;80;20981;-44
2022/08/05 04:02:04;;;;;;;14.43;9.70;;;;;;;18.06;100.00;100573.69;1773856;80;20977;-44
2022/08/05 04:04:31;;;;;;;15.32;9.78;;;;;;;18.16;100.00;100575.85;1774327;80;21144;-44
2022/08/05 04:06:58;;;;;;;17.65;11.08;;;;;;;18.20;100.00;100566.92;1774147;80;21029;-44
2022/08/05 04:09:25;;;;;;;16.23;10.93;;;;;;;18.24;100.00;100568.45;1774339;80;21021;-44
2022/08/05 04:11:54;;;;;;;20.85;10.58;;;;;;;18.21;100.00;100568.61;1774066;80;20985;-44
2022/08/05 04:14:21;;;;;;;20.30;9.65;;;;;;;18.26;100.00;100573.16;1777544;80;21641;-44
2022/08/05 04:16:48;;;;;;;20.60;11.00;;;;;;;18.32;100.00;100575.50;1788016;80;21142;-44
2022/08/05 04:19:16;;;;;;;16.95;10.08;;;;;;;18.39;100.00;100566.86;1788228;80;20898;-44
2022/08/05 04:21:43;;;;;;;15.58;9.25;;;;;;;18.50;100.00;100567.63;1787849;80;20980;-44
2022/08/05 04:24:10;;;;;;;21.65;10.68;;;;;;;18.57;100.00;100565.11;1787974;80;21016;-44
2022/08/05 04:26:37;;;;;;;17.70;9.73;;;;;;;18.59;100.00;100563.26;1788030;80;21032;-44
2022/08/05 04:29:04;;;;;;;11.35;8.35;;;;;;;18.65;100.00;100565.56;1788138;80;21292;-44
2022/08/05 04:31:31;;;;;;;13.43;9.50;;;;;;;18.72;100.00;100556.06;1787973;80;20941;-43
2022/08/05 04:33:58;;;;;;;19.40;10.13;;;;;;;18.75;100.00;100562.02;1787937;80;20977;-43
2022/08/05 04:36:25;;;;;;;18.27;10.08;;;;;;;18.79;100.00;100564.86;1788282;80;21535;-44
2022/08/05 04:38:53;;;;;;;13.15;10.20;;;;;;;18.87;100.00;100562.30;1788050;80;20977;-43
2022/08/05 04:41:20;;;;;;;14.10;10.10;;;;;;;18.97;100.00;100563.53;1788078;80;21321;-43
2022/08/05 04:43:47;;;;;;;11.38;9.28;;;;;;;19.08;100.00;100569.56;1788039;80;20922;-43
2022/08/05 04:46:14;;;;;;;14.40;10.30;;;;;;;19.20;100.00;100571.52;1788120;80;20973;-43
2022/08/05 04:48:41;;;;;;;14.63;10.93;;;;;;;19.23;100.00;100571.84;1788080;80;20961;-43
2022/08/05 04:51:08;;;;;;;16.02;9.88;;;;;;;19.29;100.00;100565.39;1787925;80;21558;-46
2022/08/05 04:53:35;;;;;;;19.87;10.65;;;;;;;19.34;100.00;100569.95;1787997;80;21242;-44
2022/08/05 04:56:02;;;;;;;21.10;10.38;;;;;;;19.41;100.00;100572.63;1787873;80;21498;-42
2022/08/05 04:58:30;;;;;;;16.62;10.05;;;;;;;19.52;100.00;100569.42;1787966;80;20965;-44
2022/08/05 05:00:57;;;;;;;16.73;9.70;;;;;;;19.64;100.00;100574.47;1788016;80;21039;-44
2022/08/05 05:03:23;;;;;;;13.72;10.88;;;;;;;19.79;100.00;100572.78;1788125;80;21538;-44
2022/08/05 05:05:50;;;;;;;17.60;10.45;;;;;;;19.89;100.00;100571.31;1787954;80;21159;-44
2022/08/05 05:08:17;;;;;;;11.53;10.15;;;;;;;19.93;100.00;100570.72;1787765;80;20961;-43
2022/08/05 05:10:45;;;;;;;15.45;11.22;;;;;;;20.01;100.00;100571.12;1787775;80;20902;-43
2022/08/05 05:13:15;;;;;;;13.20;10.65;;;;;;;20.12;100.00;100573.64;1787641;80;20957;-43
2022/08/05 05:15:42;;;;;;;14.20;10.80;;;;;;;20.24;100.00;100580.80;1778474;80;21009;-43
2022/08/05 05:18:13;;;;;;;12.00;10.43;;;;;;;20.31;100.00;100575.56;1774076;80;21232;-44
2022/08/05 05:20:43;;;;;;;9.93;9.00;;;;;;;20.38;100.00;100584.81;1774112;80;21001;-44
2022/08/05 05:23:10;;;;;;;13.35;10.08;;;;;;;20.42;100.00;100585.95;1774111;80;20977;-45
2022/08/05 05:25:37;;;;;;;11.65;10.48;;;;;;;20.39;100.00;100575.13;1774232;80;21313;-44
2022/08/05 05:30:42;;;;;;;13.58;10.08;;;;;;;20.50;100.00;100582.39;1814293;77;22364;-43
2022/08/05 05:33:09;;;;;;;9.35;8.55;;;;;;;20.43;100.00;100575.32;1788077;80;20963;-44
2022/08/05 05:35:36;;;;;;;11.08;9.95;;;;;;;20.43;100.00;100577.13;1788432;79;21135;-43
2022/08/05 05:38:03;;;;;;;11.55;9.78;;;;;;;20.45;100.00;100577.88;1788602;80;20896;-45
2022/08/05 05:40:31;;;;;;;10.40;9.38;;;;;;;20.46;100.00;100571.23;1748976;80;20971;-45
2022/08/05 05:42:58;;;;;;;11.78;10.58;;;;;;;20.50;100.00;100570.56;1788478;80;20900;-43
2022/08/05 05:45:25;;;;;;;13.15;10.90;;;;;;;20.48;100.00;100579.01;1788320;80;21341;-44
2022/08/05 05:47:51;;;;;;;16.23;10.65;;;;;;;20.48;100.00;100579.01;1788492;80;21397;-44
2022/08/05 05:50:18;;;;;;;13.28;9.75;;;;;;;20.55;100.00;100575.08;1788467;80;20991;-43
2022/08/05 05:52:46;;;;;;;11.53;10.23;;;;;;;20.49;100.00;100578.94;1788417;80;21390;-43
2022/08/05 05:55:14;;;;;;;13.32;11.25;;;;;;;20.49;100.00;100577.62;1788366;80;20982;-44
2022/08/05 05:57:43;;;;;;;15.10;11.57;;;;;;;20.56;100.00;100574.14;1788576;80;21062;-44
2022/08/05 06:00:15;;;;;;;13.98;11.95;;;;;;;20.67;100.00;100574.82;1788624;80;21133;-44
2022/08/05 06:02:41;;;;;;;13.38;10.82;;;;;;;20.70;100.00;100583.02;1744555;80;21559;-44
2022/08/05 06:05:10;;;;;;;16.87;11.93;;;;;;;20.68;100.00;100589.66;1781829;80;21022;-44
2022/08/05 06:07:38;;;;;;;15.75;13.32;;;;;;;20.71;100.00;100584.70;1781897;80;20947;-44
2022/08/05 06:10:06;;;;;;;14.07;12.50;;;;;;;20.78;100.00;100586.88;1756825;80;21023;-43
2022/08/05 06:12:34;;;;;;;15.65;13.10;;;;;;;20.80;100.00;100589.44;1785123;80;21246;-43
2022/08/05 06:15:02;;;;;;;17.85;13.18;;;;;;;20.84;100.00;100601.95;1784771;80;20959;-43
2022/08/05 06:17:29;;;;;;;21.05;13.58;;;;;;;20.88;100.00;100601.69;1781057;80;21014;-43
2022/08/05 06:19:57;;;;;;;18.48;13.58;;;;;;;20.88;100.00;100608.27;1789879;79;21003;-44
2022/08/05 06:22:30;;;;;;;14.75;12.23;;;;;;;20.93;100.00;100607.52;1791604;80;21571;-44
2022/08/05 06:24:56;;;;;;;16.48;14.65;;;;;;;21.00;100.00;100613.71;1762782;80;21053;-44
2022/08/05 06:27:24;;;;;;;18.27;14.58;;;;;;;20.89;100.00;100612.59;1778835;80;21022;-44
2022/08/05 06:29:50;;;;;;;17.42;14.18;;;;;;;20.90;100.00;100620.85;1782771;80;21033;-44
2022/08/05 06:32:17;;;;;;;19.27;14.85;;;;;;;20.96;100.00;100617.84;1783674;80;20971;-44
2022/08/05 06:34:44;;;;;;;16.37;14.58;;;;;;;21.02;100.00;100607.89;1786033;80;20999;-44
2022/08/05 06:37:12;;;;;;;20.10;15.88;;;;;;;21.13;100.00;100614.68;1781225;80;22207;-44
2022/08/05 06:39:39;;;;;;;17.32;15.30;;;;;;;21.17;100.00;100612.69;1772598;80;21303;-43
2022/08/05 06:42:06;;;;;;;18.37;15.30;;;;;;;21.16;100.00;100606.59;1785696;80;20969;-45
2022/08/05 06:44:34;;;;;;;18.32;15.70;;;;;;;21.22;100.00;100602.75;1785533;80;20984;-45
2022/08/05 06:47:01;;;;;;;21.05;14.75;;;;;;;21.28;100.00;100601.51;1785674;80;20984;-45
2022/08/05 06:49:28;;;;;;;17.23;15.32;;;;;;;21.44;100.00;100603.58;1785945;80;21238;-44
2022/08/05 06:51:54;;;;;;;16.87;14.18;;;;;;;21.55;100.00;100605.55;1785532;80;21581;-45
2022/08/05 06:54:21;;;;;;;19.32;14.30;;;;;;;21.68;100.00;100603.85;1785461;80;21039;-44
2022/08/05 06:56:48;;;;;;;22.62;13.95;;;;;;;21.76;100.00;100609.96;1785606;80;20921;-43
2022/08/05 06:59:15;;;;;;;16.60;13.80;;;;;;;21.95;100.00;100616.70;1785458;80;21521;-44
2022/08/05 07:01:42;;;;;;;18.32;16.23;;;;;;;22.17;100.00;100621.91;1785550;80;21261;-45
2022/08/05 07:04:09;;;;;;;16.82;14.50;;;;;;;22.29;100.00;100618.95;1785484;80;20977;-44
2022/08/05 07:06:37;;;;;;;20.50;15.45;;;;;;;22.47;100.00;100626.98;1785544;80;21419;-44
2022/08/05 07:09:04;;;;;;;17.00;14.95;;;;;;;22.60;100.00;100634.92;1785588;80;20965;-44
2022/08/05 07:11:33;;;;;;;15.83;14.15;;;;;;;22.69;100.00;100637.42;1785646;80;20988;-44
2022/08/05 07:16:51;;;;;;;16.07;13.78;;;;;;;22.84;100.00;100640.82;1717628;83;21035;-45
2022/08/05 07:19:20;;;;;;;21.37;16.85;;;;;;;22.86;100.00;100639.41;1741149;80;21582;-44
2022/08/05 07:21:48;;;;;;;22.37;16.57;;;;;;;22.83;100.00;100637.81;1756996;80;21617;-44
2022/08/05 07:24:16;;;;;;;22.77;17.70;;;;;;;22.80;100.00;100634.06;1785701;80;20949;-43
2022/08/05 07:26:44;;;;;;;23.98;18.12;;;;;;;22.86;100.00;100645.55;1785548;80;21927;-44
2022/08/05 07:29:11;;;;;;;21.85;17.37;;;;;;;22.90;100.00;100648.34;1784771;80;21040;-44
2022/08/05 07:31:38;;;;;;;22.80;18.92;;;;;;;23.00;100.00;100654.31;1779815;80;21055;-44
2022/08/05 07:34:05;;;;;;;21.97;19.55;;;;;;;23.04;100.00;100645.23;1779653;80;21003;-45
2022/08/05 07:36:32;;;;;;;21.23;18.92;;;;;;;23.14;100.00;100642.80;1779851;80;20996;-45
2022/08/05 07:39:04;;;;;;;19.05;17.10;;;;;;;23.21;100.00;100650.20;1779865;80;21134;-44
2022/08/05 07:41:32;;;;;;;29.70;17.80;;;;;;;23.33;100.00;100641.08;1779955;80;21721;-45
2022/08/05 07:43:59;;;;;;;18.25;16.42;;;;;;;23.53;100.00;100649.78;1779504;80;20981;-44
2022/08/05 07:46:27;;;;;;;16.87;15.08;;;;;;;23.73;100.00;100647.53;1779738;80;20953;-45
2022/08/05 07:48:55;;;;;;;16.17;14.47;;;;;;;23.86;100.00;100650.14;1779746;80;20985;-44
2022/08/05 07:51:22;;;;;;;14.93;13.43;;;;;;;23.93;100.00;100654.52;1780195;80;21095;-44
2022/08/05 07:53:50;;;;;;;15.08;13.68;;;;;;;24.00;100.00;100647.83;1779653;80;20945;-44
2022/08/05 07:56:17;;;;;;;14.70;13.15;;;;;;;24.19;100.00;100647.84;1779719;80;21507;-44
2022/08/05 07:58:45;;;;;;;14.47;13.05;;;;;;;24.41;100.00;100656.85;1779820;80;21660;-45
2022/08/05 08:01:11;;;;;;;15.78;13.93;;;;;;;24.66;100.00;100655.85;1779618;80;21554;-44
2022/08/05 08:03:39;;;;;;;17.32;12.65;;;;;;;24.87;97.40;100657.37;1779768;80;21311;-44
2022/08/05 08:06:06;;;;;;;18.57;12.05;;;;;;;24.92;98.71;100661.01;1779595;80;20992;-44
2022/08/05 08:08:34;;;;;;;15.93;12.13;;;;;;;25.06;99.24;100660.81;1749768;80;21518;-44
2022/08/05 08:11:01;;;;;;;14.03;12.55;;;;;;;25.27;97.31;100665.41;1779715;80;21032;-44
2022/08/05 08:13:28;;;;;;;15.10;13.10;;;;;;;25.30;95.97;100663.84;1779781;80;21048;-44
2022/08/05 08:15:55;;;;;;;14.63;12.85;;;;;;;25.31;95.24;100664.67;1779776;80;21251;-45
2022/08/05 08:18:22;;;;;;;25.17;12.93;;;;;;;25.44;93.34;100661.44;1779764;80;20996;-45
2022/08/05 08:20:51;;;;;;;13.35;11.60;;;;;;;25.68;94.58;100661.33;1779772;80;21012;-45
2022/08/05 08:23:18;;;;;;;12.33;11.08;;;;;;;26.04;95.01;100663.80;1779640;80;21200;-45
2022/08/05 08:25:46;;;;;;;16.10;11.80;;;;;;;26.46;94.83;100666.25;1779812;79;21039;-45
2022/08/05 08:28:13;;;;;;;13.65;11.60;;;;;;;26.80;92.03;100664.74;1749731;80;21238;-44
2022/08/05 08:30:40;;;;;;;12.43;11.00;;;;;;;27.03;91.33;100667.30;1784422;80;20961;-45
2022/08/05 08:33:12;;;;;;;13.72;11.48;;;;;;;27.28;91.14;100663.86;1788554;80;20992;-44
2022/08/05 08:35:39;;;;;;;14.35;11.38;;;;;;;27.44;88.36;100654.92;1788507;80;21027;-43
2022/08/05 08:38:06;;;;;;;13.00;11.90;;;;;;;27.54;85.45;100651.84;1788688;80;21012;-45
2022/08/05 08:40:34;;;;;;;12.85;11.20;;;;;;;27.64;84.19;100650.54;1788567;80;21329;-44
2022/08/05 08:43:01;;;;;;;15.75;10.63;;;;;;;27.69;83.12;100650.14;1788437;80;20993;-45
2022/08/05 08:45:30;;;;;;;12.28;10.93;;;;;;;27.71;82.99;100646.00;1788465;80;21023;-44
2022/08/05 08:48:01;;;;;;;12.05;10.82;;;;;;;27.78;81.79;100648.47;1788657;80;21609;-44
2022/08/05 08:50:26;;;;;;;14.50;11.40;;;;;;;27.74;79.86;100642.59;1788538;79;21031;-44
2022/08/05 08:52:57;;;;;;;11.83;10.72;;;;;;;27.64;79.97;100637.25;1788617;80;22260;-44
2022/08/05 08:55:24;;;;;;;13.18;11.75;;;;;;;27.67;80.08;100642.80;1788757;80;21035;-45
2022/08/05 08:57:51;;;;;;;14.68;11.43;;;;;;;27.70;80.76;100648.31;1788601;80;20960;-44
2022/08/05 09:00:18;;;;;;;12.20;11.03;;;;;;;27.79;82.14;100647.02;1788662;80;20984;-44
2022/08/05 09:02:45;;;;;;;12.65;10.08;;;;;;;27.91;80.90;100642.42;1788705;80;21040;-44
2022/08/05 09:05:12;;;;;;;18.42;11.63;;;;;;;28.07;79.34;100641.88;1788667;80;22094;-44
2022/08/05 09:07:39;;;;;;;11.65;10.45;;;;;;;28.21;77.48;100646.48;1788481;80;20988;-44
2022/08/05 09:10:06;;;;;;;14.30;10.40;;;;;;;28.16;78.21;100636.73;1788657;80;21020;-45
2022/08/05 09:12:34;;;;;;;10.90;9.75;;;;;;;28.24;78.24;100639.05;1788618;80;21496;-44
2022/08/05 09:15:06;;;;;;;12.63;9.90;;;;;;;28.61;81.30;100628.67;1788644;80;21000;-45
2022/08/05 09:17:33;;;;;;;10.65;9.63;;;;;;;29.00;79.06;100624.61;1762461;80;21566;-44
2022/08/05 09:20:01;;;;;;;14.23;10.15;;;;;;;29.45;73.58;100631.08;1788645;80;21004;-46
2022/08/05 09:22:28;;;;;;;11.10;10.10;;;;;;;29.51;71.97;100622.47;1788490;80;20969;-43
2022/08/05 09:25:02;;;;;;;11.93;9.68;;;;;;;29.49;73.27;100619.59;1788735;80;21507;-45
2022/08/05 09:27:33;;;;;;;12.05;10.93;;;;;;;29.40;72.55;100630.62;1789033;80;20988;-45
2022/08/05 09:30:00;;;;;;;12.85;10.28;;;;;;;29.03;71.85;100628.81;1787106;80;21091;-45
2022/08/05 09:32:35;;;;;;;14.07;10.32;;;;;;;28.51;73.52;100623.36;1779654;80;21562;-44
2022/08/05 09:35:16;;;;;;;11.33;10.32;;;;;;;28.30;74.67;100627.01;1779668;80;21625;-44
2022/08/05 09:37:51;;;;;;;10.78;9.68;;;;;;;28.25;76.27;100622.09;1779562;80;21112;-44
2022/08/05 09:40:38;;;;;;;11.90;9.35;;;;;;;28.46;77.01;100617.13;1779856;80;21039;-44
2022/08/05 09:43:09;;;;;;;11.30;9.75;;;;;;;28.87;75.86;100612.94;1779708;80;21226;-43
2022/08/05 09:45:43;;;;;;;11.97;9.45;;;;;;;29.18;74.21;100613.20;1779646;80;20952;-45
2022/08/05 09:48:28;;;;;;;10.70;9.60;;;;;;;29.38;72.35;100609.94;1780145;80;20929;-45
2022/08/05 09:51:04;;;;;;;11.03;9.90;;;;;;;29.62;70.52;100599.25;1779766;80;21483;-46
2022/08/05 09:53:47;;;;;;;10.82;9.83;;;;;;;29.70;71.69;100602.03;1779938;80;20992;-45
2022/08/05 09:56:14;;;;;;;9.63;8.65;;;;;;;29.63;69.86;100599.59;1779672;80;21231;-45
2022/08/05 09:58:41;;;;;;;10.40;9.50;;;;;;;29.47;70.51;100594.92;1725171;80;20961;-45
2022/08/05 10:01:09;;;;;;;11.12;10.13;;;;;;;29.25;71.43;100587.16;1779625;80;21620;-46
2022/08/05 10:03:36;;;;;;;10.00;8.85;;;;;;;28.96;72.93;100586.78;1726072;80;20989;-46
2022/08/05 10:06:09;;;;;;;15.75;10.00;;;;;;;29.10;74.01;100583.28;1780021;80;20989;-46
2022/08/05 10:08:37;;;;;;;13.45;9.70;;;;;;;29.25;73.09;100576.49;1779677;80;22118;-46
2022/08/05 10:11:07;;;;;;;10.35;9.38;;;;;;;29.15;72.33;100584.19;1779768;80;21019;-46
2022/08/05 10:13:37;;;;;;;13.38;9.40;;;;;;;28.91;72.66;100571.71;1749977;80;21008;-45
2022/08/05 10:16:05;;;;;;;11.10;9.75;;;;;;;28.87;73.39;100570.33;1779711;80;20976;-45
2022/08/05 10:18:33;;;;;;;11.43;9.13;;;;;;;29.04;72.52;100578.55;1779786;80;22662;-45
2022/08/05 10:21:04;;;;;;;9.70;8.88;;;;;;;29.17;74.12;100571.05;1749572;80;21141;-45
2022/08/05 10:23:37;;;;;;;12.95;9.38;;;;;;;29.44;74.30;100575.23;1779655;80;21534;-46
2022/08/05 10:26:07;;;;;;;13.65;9.50;;;;;;;29.51;73.56;100570.49;1779678;80;20981;-45
2022/08/05 10:28:35;;;;;;;9.53;8.58;;;;;;;29.37;71.91;100574.95;1750227;80;20997;-46
2022/08/05 10:31:02;;;;;;;10.08;9.20;;;;;;;29.36;73.48;100573.27;1765602;80;20999;-45
2022/08/05 10:33:31;;;;;;;13.05;9.00;;;;;;;29.63;71.79;100568.93;1748422;82;21232;-45
2022/08/05 10:35:59;;;;;;;9.95;8.95;;;;;;;29.99;69.09;100566.30;1748314;82;20995;-45
2022/08/05 10:38:28;;;;;;;9.53;8.40;;;;;;;30.17;68.22;100560.11;1748420;82;20935;-46
2022/08/05 10:41:21;;;;;;;9.33;8.18;;;;;;;30.26;67.92;100553.87;1748475;82;20939;-45
2022/08/05 10:43:57;;;;;;;10.10;8.15;;;;;;;30.61;69.06;100556.13;1748685;82;20995;-43
2022/08/05 10:46:28;;;;;;;8.25;7.55;;;;;;;30.95;64.84;100552.66;1748332;82;21256;-46
2022/08/05 10:49:00;;;;;;;8.78;8.08;;;;;;;30.61;65.54;100555.30;1719285;82;21070;-43
2022/08/05 10:51:24;;;;;;;9.63;8.63;;;;;;;30.46;65.40;100558.50;1747447;82;20943;-43
2022/08/05 10:53:54;;;;;;;10.28;8.15;;;;;;;30.37;66.16;100556.78;1748466;82;20971;-43
2022/08/05 10:56:23;;;;;;;10.38;8.08;;;;;;;30.45;66.51;100559.50;1748508;81;21030;-43
2022/08/05 10:59:03;;;;;;;8.93;8.10;;;;;;;30.56;66.44;100557.07;1748173;82;21173;-43
2022/08/05 11:01:35;;;;;;;8.43;7.65;;;;;;;30.52;65.43;100559.72;1748225;82;20984;-43
2022/08/05 11:04:10;;;;;;;10.80;7.90;;;;;;;30.51;64.89;100552.70;1747321;82;20959;-43
2022/08/05 11:06:59;;;;;;;;;;;;;;;30.09;65.74;100551.57;1750466;82;20948;-44
2022/08/05 11:09:47;;;;;;;8.58;7.78;;;;;;;29.83;67.62;100546.98;1748217;82;20491;-44
2022/08/05 11:12:41;;;;;;;11.63;8.00;;;;;;;29.29;66.81;100550.37;1748477;82;21134;-43
2022/08/05 11:15:17;;;;;;;10.38;7.80;;;;;;;29.16;69.12;100547.23;1748121;82;20917;-43
2022/08/05 11:17:47;;;;;;;10.82;7.97;;;;;;;29.42;68.73;100542.05;1722871;82;21572;-44
2022/08/05 11:20:43;;;;;;;8.38;7.67;;;;;;;29.61;68.45;100546.44;1747771;82;20948;-44
2022/08/05 11:23:44;;;;;;;7.62;7.03;;;;;;;29.77;67.67;100555.09;1748527;82;21018;-43
2022/08/05 11:26:22;;;;;;;10.55;7.15;;;;;;;29.86;68.01;100559.16;1721776;82;21233;-43